Time;durP1;ratioP1;P1;durP2;ratioP2;P2;SDS_P1;SDS_P2;PMS_P1;PMS_P2;Temp;Humidity;BMP_temperature;BMP_pressure;BME280_temperature;BME280_humidity;BME280_pressure;Samples;Min_cycle;Max_cycle;Signal;HPM_P1;HPM_P2
2021/08/04 00:00:56;;;;;;;4.7;3.4;;;;;;;14.61;100;95140.12;;;;
2021/08/04 00:01:56;;;;;;;4.4;3.2;;;;;;;14.6;100;95138.61;;;;
2021/08/04 00:02:56;;;;;;;4.4;3.2;;;;;;;14.6;100;95138.61;;;;
2021/08/04 00:03:57;;;;;;;4.4;3.2;;;;;;;14.6;100;95138.61;;;;
2021/08/04 00:04:57;;;;;;;4.4;3.2;;;;;;;14.6;100;95138.61;;;;
2021/08/04 00:05:58;;;;;;;4.4;3.2;;;;;;;14.6;100;95138.61;;;;
2021/08/04 00:06:58;;;;;;;4.4;3.2;;;;;;;14.6;100;95138.61;;;;
2021/08/04 00:07:59;;;;;;;4.4;3.2;;;;;;;14.6;100;95138.61;;;;
2021/08/04 00:08:59;;;;;;;4.4;3.2;;;;;;;14.6;100;95138.61;;;;
2021/08/04 00:10:00;;;;;;;4.4;3.2;;;;;;;14.6;100;95138.61;;;;
2021/08/04 00:11:00;;;;;;;4.4;3.2;;;;;;;14.6;100;95138.61;;;;
2021/08/04 00:12:01;;;;;;;4.4;3.2;;;;;;;14.6;100;95138.61;;;;
2021/08/04 00:13:02;;;;;;;3.55;3.25;;;;;;;14.61;100;95146.91;;;;
2021/08/04 00:14:03;;;;;;;3.55;3.25;;;;;;;14.61;100;95146.91;;;;
2021/08/04 00:15:04;;;;;;;3.55;3.25;;;;;;;14.61;100;95146.91;;;;
2021/08/04 00:16:06;;;;;;;3.55;3.25;;;;;;;14.61;100;95146.91;;;;
2021/08/04 00:17:07;;;;;;;3.55;3.25;;;;;;;14.61;100;95146.91;;;;
2021/08/04 00:18:08;;;;;;;3.55;3.25;;;;;;;14.61;100;95146.91;;;;
2021/08/04 00:19:09;;;;;;;3.55;3.25;;;;;;;14.61;100;95146.91;;;;
2021/08/04 00:20:09;;;;;;;3.55;3.25;;;;;;;14.61;100;95146.91;;;;
2021/08/04 00:21:11;;;;;;;3.55;3.25;;;;;;;14.61;100;95146.91;;;;
2021/08/04 00:22:12;;;;;;;3.55;3.25;;;;;;;14.61;100;95146.91;;;;
2021/08/04 00:23:12;;;;;;;3.25;2.95;;;;;;;14.57;100;95138.59;;;;
2021/08/04 00:24:13;;;;;;;3.25;2.95;;;;;;;14.57;100;95138.59;;;;
2021/08/04 00:25:13;;;;;;;3.25;2.95;;;;;;;14.57;100;95138.59;;;;
2021/08/04 00:26:14;;;;;;;3.25;2.95;;;;;;;14.57;100;95138.59;;;;
2021/08/04 00:27:14;;;;;;;3.25;2.95;;;;;;;14.57;100;95138.59;;;;
2021/08/04 00:28:15;;;;;;;3.25;2.95;;;;;;;14.57;100;95138.59;;;;
2021/08/04 00:29:16;;;;;;;3.25;2.95;;;;;;;14.57;100;95138.59;;;;
2021/08/04 00:30:16;;;;;;;3.25;2.95;;;;;;;14.57;100;95138.59;;;;
2021/08/04 00:31:17;;;;;;;3.25;2.95;;;;;;;14.57;100;95138.59;;;;
2021/08/04 00:32:17;;;;;;;3.25;2.95;;;;;;;14.57;100;95138.59;;;;
2021/08/04 00:33:18;;;;;;;3.25;2.95;;;;;;;14.57;100;95138.59;;;;
2021/08/04 00:34:18;;;;;;;5.5;3.3;;;;;;;14.58;100;95147.45;;;;
2021/08/04 00:35:19;;;;;;;5.5;3.3;;;;;;;14.58;100;95147.45;;;;
2021/08/04 00:36:20;;;;;;;5.5;3.3;;;;;;;14.58;100;95147.45;;;;
2021/08/04 00:37:20;;;;;;;5.5;3.3;;;;;;;14.58;100;95147.45;;;;
2021/08/04 00:38:20;;;;;;;5.5;3.3;;;;;;;14.58;100;95147.45;;;;
2021/08/04 00:39:21;;;;;;;5.5;3.3;;;;;;;14.58;100;95147.45;;;;
2021/08/04 00:40:22;;;;;;;5.5;3.3;;;;;;;14.58;100;95147.45;;;;
2021/08/04 00:41:23;;;;;;;5.5;3.3;;;;;;;14.58;100;95147.45;;;;
2021/08/04 00:42:24;;;;;;;5.5;3.3;;;;;;;14.58;100;95147.45;;;;
2021/08/04 00:43:24;;;;;;;5.5;3.3;;;;;;;14.58;100;95147.45;;;;
2021/08/04 00:44:25;;;;;;;4.3;3.05;;;;;;;14.53;100;95153.8;;;;
2021/08/04 00:45:25;;;;;;;4.3;3.05;;;;;;;14.53;100;95153.8;;;;
2021/08/04 00:46:26;;;;;;;4.3;3.05;;;;;;;14.53;100;95153.8;;;;
2021/08/04 00:47:26;;;;;;;4.3;3.05;;;;;;;14.53;100;95153.8;;;;
2021/08/04 00:48:27;;;;;;;4.3;3.05;;;;;;;14.53;100;95153.8;;;;
2021/08/04 00:49:28;;;;;;;4.3;3.05;;;;;;;14.53;100;95153.8;;;;
2021/08/04 00:50:29;;;;;;;4.3;3.05;;;;;;;14.53;100;95153.8;;;;
2021/08/04 00:51:31;;;;;;;4.3;3.05;;;;;;;14.53;100;95153.8;;;;
2021/08/04 00:52:32;;;;;;;4.3;3.05;;;;;;;14.53;100;95153.8;;;;
2021/08/04 00:53:32;;;;;;;4.3;3.05;;;;;;;14.53;100;95153.8;;;;
2021/08/04 00:54:32;;;;;;;4.3;3.05;;;;;;;14.53;100;95153.8;;;;
2021/08/04 00:55:35;;;;;;;3.6;3.15;;;;;;;14.52;100;95161.25;;;;
2021/08/04 00:56:35;;;;;;;3.6;3.15;;;;;;;14.52;100;95161.25;;;;
2021/08/04 00:57:37;;;;;;;3.6;3.15;;;;;;;14.52;100;95161.25;;;;
2021/08/04 00:58:37;;;;;;;3.6;3.15;;;;;;;14.52;100;95161.25;;;;
2021/08/04 00:59:40;;;;;;;3.6;3.15;;;;;;;14.52;100;95161.25;;;;
2021/08/04 01:00:41;;;;;;;3.6;3.15;;;;;;;14.52;100;95161.25;;;;
2021/08/04 01:01:48;;;;;;;3.6;3.15;;;;;;;14.52;100;95161.25;;;;
2021/08/04 01:02:56;;;;;;;3.6;3.15;;;;;;;14.52;100;95161.25;;;;
2021/08/04 01:04:01;;;;;;;3.6;3.15;;;;;;;14.52;100;95161.25;;;;
2021/08/04 01:05:13;;;;;;;3.6;3.15;;;;;;;14.52;100;95161.25;;;;
2021/08/04 01:06:17;;;;;;;3.9;3.45;;;;;;;14.43;100;95160.11;;;;
2021/08/04 01:07:25;;;;;;;3.9;3.45;;;;;;;14.43;100;95160.11;;;;
2021/08/04 01:08:30;;;;;;;3.9;3.45;;;;;;;14.43;100;95160.11;;;;
2021/08/04 01:09:35;;;;;;;3.9;3.45;;;;;;;14.43;100;95160.11;;;;
2021/08/04 01:10:42;;;;;;;3.9;3.45;;;;;;;14.43;100;95160.11;;;;
2021/08/04 01:11:49;;;;;;;3.9;3.45;;;;;;;14.43;100;95160.11;;;;
2021/08/04 01:12:55;;;;;;;3.9;3.45;;;;;;;14.43;100;95160.11;;;;
2021/08/04 01:14:07;;;;;;;3.9;3.45;;;;;;;14.43;100;95160.11;;;;
2021/08/04 01:15:12;;;;;;;3.9;3.45;;;;;;;14.43;100;95160.11;;;;
2021/08/04 01:16:14;;;;;;;5;3.55;;;;;;;14.39;100;95152.61;;;;
2021/08/04 01:17:21;;;;;;;5;3.55;;;;;;;14.39;100;95152.61;;;;
2021/08/04 01:18:21;;;;;;;5;3.55;;;;;;;14.39;100;95152.61;;;;
2021/08/04 01:19:26;;;;;;;5;3.55;;;;;;;14.39;100;95152.61;;;;
2021/08/04 01:20:37;;;;;;;5;3.55;;;;;;;14.39;100;95152.61;;;;
2021/08/04 01:21:38;;;;;;;5;3.55;;;;;;;14.39;100;95152.61;;;;
2021/08/04 01:22:46;;;;;;;5;3.55;;;;;;;14.39;100;95152.61;;;;
2021/08/04 01:23:58;;;;;;;5;3.55;;;;;;;14.39;100;95152.61;;;;
2021/08/04 01:25:05;;;;;;;5;3.55;;;;;;;14.39;100;95152.61;;;;
2021/08/04 01:26:14;;;;;;;5;3.55;;;;;;;14.39;100;95152.61;;;;
2021/08/04 01:27:24;;;;;;;4.450001;3.45;;;;;;;14.3;100;95147.81;;;;
2021/08/04 01:28:27;;;;;;;4.450001;3.45;;;;;;;14.3;100;95147.81;;;;
2021/08/04 01:29:32;;;;;;;4.450001;3.45;;;;;;;14.3;100;95147.81;;;;
2021/08/04 01:30:33;;;;;;;4.450001;3.45;;;;;;;14.3;100;95147.81;;;;
2021/08/04 01:31:33;;;;;;;4.450001;3.45;;;;;;;14.3;100;95147.81;;;;
2021/08/04 01:32:36;;;;;;;4.450001;3.45;;;;;;;14.3;100;95147.81;;;;
2021/08/04 01:33:37;;;;;;;4.450001;3.45;;;;;;;14.3;100;95147.81;;;;
2021/08/04 01:34:42;;;;;;;4.450001;3.45;;;;;;;14.3;100;95147.81;;;;
2021/08/04 01:35:44;;;;;;;4.450001;3.45;;;;;;;14.3;100;95147.81;;;;
2021/08/04 01:36:46;;;;;;;4.450001;3.45;;;;;;;14.3;100;95147.81;;;;
2021/08/04 01:37:48;;;;;;;4;3.55;;;;;;;14.3;100;95150.11;;;;
2021/08/04 01:38:50;;;;;;;4;3.55;;;;;;;14.3;100;95150.11;;;;
2021/08/04 01:39:52;;;;;;;4;3.55;;;;;;;14.3;100;95150.11;;;;
2021/08/04 01:40:54;;;;;;;4;3.55;;;;;;;14.3;100;95150.11;;;;
2021/08/04 01:41:56;;;;;;;4;3.55;;;;;;;14.3;100;95150.11;;;;
2021/08/04 01:42:57;;;;;;;4;3.55;;;;;;;14.3;100;95150.11;;;;
2021/08/04 01:43:58;;;;;;;4;3.55;;;;;;;14.3;100;95150.11;;;;
2021/08/04 01:45:00;;;;;;;4;3.55;;;;;;;14.3;100;95150.11;;;;
2021/08/04 01:46:01;;;;;;;4;3.55;;;;;;;14.3;100;95150.11;;;;
2021/08/04 01:47:02;;;;;;;4;3.55;;;;;;;14.3;100;95150.11;;;;
2021/08/04 01:48:04;;;;;;;4;3.55;;;;;;;14.3;100;95150.11;;;;
2021/08/04 01:49:06;;;;;;;4.35;3.35;;;;;;;14.23;100;95147.19;;;;
2021/08/04 01:50:06;;;;;;;4.35;3.35;;;;;;;14.23;100;95147.19;;;;
2021/08/04 01:51:08;;;;;;;4.35;3.35;;;;;;;14.23;100;95147.19;;;;
2021/08/04 01:52:10;;;;;;;4.35;3.35;;;;;;;14.23;100;95147.19;;;;
2021/08/04 01:53:12;;;;;;;4.35;3.35;;;;;;;14.23;100;95147.19;;;;
2021/08/04 01:54:14;;;;;;;4.35;3.35;;;;;;;14.23;100;95147.19;;;;
2021/08/04 01:55:16;;;;;;;4.35;3.35;;;;;;;14.23;100;95147.19;;;;
2021/08/04 01:56:16;;;;;;;4.35;3.35;;;;;;;14.23;100;95147.19;;;;
2021/08/04 01:57:17;;;;;;;4.35;3.35;;;;;;;14.23;100;95147.19;;;;
2021/08/04 01:58:17;;;;;;;4.35;3.35;;;;;;;14.23;100;95147.19;;;;
2021/08/04 01:59:18;;;;;;;4.849999;3.55;;;;;;;14.14;100;95132.87;;;;
2021/08/04 02:00:19;;;;;;;4.849999;3.55;;;;;;;14.14;100;95132.87;;;;
2021/08/04 02:01:20;;;;;;;4.849999;3.55;;;;;;;14.14;100;95132.87;;;;
2021/08/04 02:02:21;;;;;;;4.849999;3.55;;;;;;;14.14;100;95132.87;;;;
2021/08/04 02:03:23;;;;;;;4.849999;3.55;;;;;;;14.14;100;95132.87;;;;
2021/08/04 02:04:23;;;;;;;4.849999;3.55;;;;;;;14.14;100;95132.87;;;;
2021/08/04 02:05:24;;;;;;;4.849999;3.55;;;;;;;14.14;100;95132.87;;;;
2021/08/04 02:06:24;;;;;;;4.849999;3.55;;;;;;;14.14;100;95132.87;;;;
2021/08/04 02:07:31;;;;;;;4.849999;3.55;;;;;;;14.14;100;95132.87;;;;
2021/08/04 02:08:42;;;;;;;4.849999;3.55;;;;;;;14.14;100;95132.87;;;;
2021/08/04 02:09:52;;;;;;;4.25;3.4;;;;;;;14.15;100;95120.95;;;;
2021/08/04 02:11:00;;;;;;;4.25;3.4;;;;;;;14.15;100;95120.95;;;;
2021/08/04 02:12:05;;;;;;;4.25;3.4;;;;;;;14.15;100;95120.95;;;;
2021/08/04 02:13:09;;;;;;;4.25;3.4;;;;;;;14.15;100;95120.95;;;;
2021/08/04 02:14:20;;;;;;;4.25;3.4;;;;;;;14.15;100;95120.95;;;;
2021/08/04 02:15:27;;;;;;;4.25;3.4;;;;;;;14.15;100;95120.95;;;;
2021/08/04 02:16:32;;;;;;;4.25;3.4;;;;;;;14.15;100;95120.95;;;;
2021/08/04 02:17:39;;;;;;;4.25;3.4;;;;;;;14.15;100;95120.95;;;;
2021/08/04 02:18:44;;;;;;;4.25;3.4;;;;;;;14.15;100;95120.95;;;;
2021/08/04 02:19:50;;;;;;;4.25;3.4;;;;;;;14.15;100;95120.95;;;;
2021/08/04 02:20:55;;;;;;;5.05;3.8;;;;;;;14.07;100;95120.6;;;;
2021/08/04 02:21:58;;;;;;;5.05;3.8;;;;;;;14.07;100;95120.6;;;;
2021/08/04 02:23:06;;;;;;;5.05;3.8;;;;;;;14.07;100;95120.6;;;;
2021/08/04 02:24:10;;;;;;;5.05;3.8;;;;;;;14.07;100;95120.6;;;;
2021/08/04 02:25:15;;;;;;;5.05;3.8;;;;;;;14.07;100;95120.6;;;;
2021/08/04 02:26:21;;;;;;;5.05;3.8;;;;;;;14.07;100;95120.6;;;;
2021/08/04 02:27:22;;;;;;;5.05;3.8;;;;;;;14.07;100;95120.6;;;;
2021/08/04 02:28:23;;;;;;;5.05;3.8;;;;;;;14.07;100;95120.6;;;;
2021/08/04 02:29:27;;;;;;;5.05;3.8;;;;;;;14.07;100;95120.6;;;;
2021/08/04 02:30:30;;;;;;;5.05;3.8;;;;;;;14.07;100;95120.6;;;;
2021/08/04 02:31:32;;;;;;;4.1;3.7;;;;;;;14.09;100;95115.73;;;;
2021/08/04 02:32:34;;;;;;;4.1;3.7;;;;;;;14.09;100;95115.73;;;;
2021/08/04 02:33:35;;;;;;;4.1;3.7;;;;;;;14.09;100;95115.73;;;;
2021/08/04 02:34:35;;;;;;;4.1;3.7;;;;;;;14.09;100;95115.73;;;;
2021/08/04 02:35:36;;;;;;;4.1;3.7;;;;;;;14.09;100;95115.73;;;;
2021/08/04 02:36:37;;;;;;;4.1;3.7;;;;;;;14.09;100;95115.73;;;;
2021/08/04 02:37:37;;;;;;;4.1;3.7;;;;;;;14.09;100;95115.73;;;;
2021/08/04 02:38:38;;;;;;;4.1;3.7;;;;;;;14.09;100;95115.73;;;;
2021/08/04 02:39:39;;;;;;;4.1;3.7;;;;;;;14.09;100;95115.73;;;;
2021/08/04 02:40:40;;;;;;;4.1;3.7;;;;;;;14.09;100;95115.73;;;;
2021/08/04 02:41:41;;;;;;;4.400001;3.85;;;;;;;14.01;100;95112.58;;;;
2021/08/04 02:42:43;;;;;;;4.400001;3.85;;;;;;;14.01;100;95112.58;;;;
2021/08/04 02:43:45;;;;;;;4.400001;3.85;;;;;;;14.01;100;95112.58;;;;
2021/08/04 02:44:46;;;;;;;4.400001;3.85;;;;;;;14.01;100;95112.58;;;;
2021/08/04 02:45:46;;;;;;;4.400001;3.85;;;;;;;14.01;100;95112.58;;;;
2021/08/04 02:46:47;;;;;;;4.400001;3.85;;;;;;;14.01;100;95112.58;;;;
2021/08/04 02:47:48;;;;;;;4.400001;3.85;;;;;;;14.01;100;95112.58;;;;
2021/08/04 02:48:49;;;;;;;4.400001;3.85;;;;;;;14.01;100;95112.58;;;;
2021/08/04 02:49:50;;;;;;;4.400001;3.85;;;;;;;14.01;100;95112.58;;;;
2021/08/04 02:50:51;;;;;;;4.400001;3.85;;;;;;;14.01;100;95112.58;;;;
2021/08/04 02:51:54;;;;;;;4.400001;3.85;;;;;;;14.01;100;95112.58;;;;
2021/08/04 02:52:55;;;;;;;4.15;3.7;;;;;;;13.99;100;95103.46;;;;
2021/08/04 02:53:56;;;;;;;4.15;3.7;;;;;;;13.99;100;95103.46;;;;
2021/08/04 02:54:58;;;;;;;4.15;3.7;;;;;;;13.99;100;95103.46;;;;
2021/08/04 02:55:59;;;;;;;4.15;3.7;;;;;;;13.99;100;95103.46;;;;
2021/08/04 02:57:00;;;;;;;4.15;3.7;;;;;;;13.99;100;95103.46;;;;
2021/08/04 02:58:01;;;;;;;4.15;3.7;;;;;;;13.99;100;95103.46;;;;
2021/08/04 02:59:01;;;;;;;4.15;3.7;;;;;;;13.99;100;95103.46;;;;
2021/08/04 03:00:02;;;;;;;4.15;3.7;;;;;;;13.99;100;95103.46;;;;
2021/08/04 03:01:03;;;;;;;4.15;3.7;;;;;;;13.99;100;95103.46;;;;
2021/08/04 03:02:05;;;;;;;4.15;3.7;;;;;;;13.99;100;95103.46;;;;
2021/08/04 03:03:06;;;;;;;3.85;3.45;;;;;;;13.93;100;95104.91;;;;
2021/08/04 03:04:07;;;;;;;3.85;3.45;;;;;;;13.93;100;95104.91;;;;
2021/08/04 03:05:07;;;;;;;3.85;3.45;;;;;;;13.93;100;95104.91;;;;
2021/08/04 03:06:09;;;;;;;3.85;3.45;;;;;;;13.93;100;95104.91;;;;
2021/08/04 03:07:10;;;;;;;3.85;3.45;;;;;;;13.93;100;95104.91;;;;
2021/08/04 03:08:10;;;;;;;3.85;3.45;;;;;;;13.93;100;95104.91;;;;
2021/08/04 03:09:11;;;;;;;3.85;3.45;;;;;;;13.93;100;95104.91;;;;
2021/08/04 03:10:11;;;;;;;3.85;3.45;;;;;;;13.93;100;95104.91;;;;
2021/08/04 03:11:12;;;;;;;3.85;3.45;;;;;;;13.93;100;95104.91;;;;
2021/08/04 03:12:12;;;;;;;3.85;3.45;;;;;;;13.93;100;95104.91;;;;
2021/08/04 03:13:13;;;;;;;3.85;3.45;;;;;;;13.93;100;95104.91;;;;
2021/08/04 03:14:14;;;;;;;5.349999;3.85;;;;;;;13.93;100;95108.03;;;;
2021/08/04 03:15:14;;;;;;;5.349999;3.85;;;;;;;13.93;100;95108.03;;;;
2021/08/04 03:16:15;;;;;;;5.349999;3.85;;;;;;;13.93;100;95108.03;;;;
2021/08/04 03:17:16;;;;;;;5.349999;3.85;;;;;;;13.93;100;95108.03;;;;
2021/08/04 03:18:16;;;;;;;5.349999;3.85;;;;;;;13.93;100;95108.03;;;;
2021/08/04 03:19:17;;;;;;;5.349999;3.85;;;;;;;13.93;100;95108.03;;;;
2021/08/04 03:20:17;;;;;;;5.349999;3.85;;;;;;;13.93;100;95108.03;;;;
2021/08/04 03:21:18;;;;;;;5.349999;3.85;;;;;;;13.93;100;95108.03;;;;
2021/08/04 03:22:18;;;;;;;5.349999;3.85;;;;;;;13.93;100;95108.03;;;;
2021/08/04 03:23:19;;;;;;;5.349999;3.85;;;;;;;13.93;100;95108.03;;;;
2021/08/04 03:24:20;;;;;;;6.2;3.95;;;;;;;13.89;100;95115.2;;;;
2021/08/04 03:25:20;;;;;;;6.2;3.95;;;;;;;13.89;100;95115.2;;;;
2021/08/04 03:26:21;;;;;;;6.2;3.95;;;;;;;13.89;100;95115.2;;;;
2021/08/04 03:27:21;;;;;;;6.2;3.95;;;;;;;13.89;100;95115.2;;;;
2021/08/04 03:28:22;;;;;;;6.2;3.95;;;;;;;13.89;100;95115.2;;;;
2021/08/04 03:29:22;;;;;;;6.2;3.95;;;;;;;13.89;100;95115.2;;;;
2021/08/04 03:30:23;;;;;;;6.2;3.95;;;;;;;13.89;100;95115.2;;;;
2021/08/04 03:31:24;;;;;;;6.2;3.95;;;;;;;13.89;100;95115.2;;;;
2021/08/04 03:32:25;;;;;;;6.2;3.95;;;;;;;13.89;100;95115.2;;;;
2021/08/04 03:33:25;;;;;;;6.2;3.95;;;;;;;13.89;100;95115.2;;;;
2021/08/04 03:34:26;;;;;;;6.2;3.95;;;;;;;13.89;100;95115.2;;;;
2021/08/04 03:35:26;;;;;;;5.199999;4.45;;;;;;;13.89;100;95112.48;;;;
2021/08/04 03:36:28;;;;;;;5.199999;4.45;;;;;;;13.89;100;95112.48;;;;
2021/08/04 03:37:29;;;;;;;5.199999;4.45;;;;;;;13.89;100;95112.48;;;;
2021/08/04 03:38:29;;;;;;;5.199999;4.45;;;;;;;13.89;100;95112.48;;;;
2021/08/04 03:39:30;;;;;;;5.199999;4.45;;;;;;;13.89;100;95112.48;;;;
2021/08/04 03:40:31;;;;;;;5.199999;4.45;;;;;;;13.89;100;95112.48;;;;
2021/08/04 03:41:32;;;;;;;5.199999;4.45;;;;;;;13.89;100;95112.48;;;;
2021/08/04 03:42:33;;;;;;;5.199999;4.45;;;;;;;13.89;100;95112.48;;;;
2021/08/04 03:43:33;;;;;;;5.199999;4.45;;;;;;;13.89;100;95112.48;;;;
2021/08/04 03:44:34;;;;;;;5.199999;4.45;;;;;;;13.89;100;95112.48;;;;
2021/08/04 03:45:35;;;;;;;4.500001;3.75;;;;;;;13.85;100;95104.58;;;;
2021/08/04 03:46:35;;;;;;;4.500001;3.75;;;;;;;13.85;100;95104.58;;;;
2021/08/04 03:47:36;;;;;;;4.500001;3.75;;;;;;;13.85;100;95104.58;;;;
2021/08/04 03:48:37;;;;;;;4.500001;3.75;;;;;;;13.85;100;95104.58;;;;
2021/08/04 03:49:37;;;;;;;4.500001;3.75;;;;;;;13.85;100;95104.58;;;;
2021/08/04 03:50:38;;;;;;;4.500001;3.75;;;;;;;13.85;100;95104.58;;;;
2021/08/04 03:51:38;;;;;;;4.500001;3.75;;;;;;;13.85;100;95104.58;;;;
2021/08/04 03:52:39;;;;;;;4.500001;3.75;;;;;;;13.85;100;95104.58;;;;
2021/08/04 03:53:41;;;;;;;4.500001;3.75;;;;;;;13.85;100;95104.58;;;;
2021/08/04 03:54:42;;;;;;;4.500001;3.75;;;;;;;13.85;100;95104.58;;;;
2021/08/04 03:55:42;;;;;;;4.500001;3.75;;;;;;;13.85;100;95104.58;;;;
2021/08/04 03:56:43;;;;;;;4.3;3.75;;;;;;;13.83;100;95100.78;;;;
2021/08/04 03:57:44;;;;;;;4.3;3.75;;;;;;;13.83;100;95100.78;;;;
2021/08/04 03:58:44;;;;;;;4.3;3.75;;;;;;;13.83;100;95100.78;;;;
2021/08/04 03:59:45;;;;;;;4.3;3.75;;;;;;;13.83;100;95100.78;;;;
2021/08/04 04:00:45;;;;;;;4.3;3.75;;;;;;;13.83;100;95100.78;;;;
2021/08/04 04:01:46;;;;;;;4.3;3.75;;;;;;;13.83;100;95100.78;;;;
2021/08/04 04:02:46;;;;;;;4.3;3.75;;;;;;;13.83;100;95100.78;;;;
2021/08/04 04:03:47;;;;;;;4.3;3.75;;;;;;;13.83;100;95100.78;;;;
2021/08/04 04:04:47;;;;;;;4.3;3.75;;;;;;;13.83;100;95100.78;;;;
2021/08/04 04:05:48;;;;;;;4.3;3.75;;;;;;;13.83;100;95100.78;;;;
2021/08/04 04:06:48;;;;;;;5;3.75;;;;;;;13.83;100;95096.7;;;;
2021/08/04 04:07:49;;;;;;;5;3.75;;;;;;;13.83;100;95096.7;;;;
2021/08/04 04:08:49;;;;;;;5;3.75;;;;;;;13.83;100;95096.7;;;;
2021/08/04 04:09:50;;;;;;;5;3.75;;;;;;;13.83;100;95096.7;;;;
2021/08/04 04:10:50;;;;;;;5;3.75;;;;;;;13.83;100;95096.7;;;;
2021/08/04 04:11:51;;;;;;;5;3.75;;;;;;;13.83;100;95096.7;;;;
2021/08/04 04:12:51;;;;;;;5;3.75;;;;;;;13.83;100;95096.7;;;;
2021/08/04 04:13:52;;;;;;;5;3.75;;;;;;;13.83;100;95096.7;;;;
2021/08/04 04:14:52;;;;;;;5;3.75;;;;;;;13.83;100;95096.7;;;;
2021/08/04 04:15:53;;;;;;;5;3.75;;;;;;;13.83;100;95096.7;;;;
2021/08/04 04:16:53;;;;;;;5;3.75;;;;;;;13.83;100;95096.7;;;;
2021/08/04 04:17:54;;;;;;;4.399999;3.8;;;;;;;13.84;100;95087.88;;;;
2021/08/04 04:18:55;;;;;;;4.399999;3.8;;;;;;;13.84;100;95087.88;;;;
2021/08/04 04:19:55;;;;;;;4.399999;3.8;;;;;;;13.84;100;95087.88;;;;
2021/08/04 04:20:56;;;;;;;4.399999;3.8;;;;;;;13.84;100;95087.88;;;;
2021/08/04 04:21:56;;;;;;;4.399999;3.8;;;;;;;13.84;100;95087.88;;;;
2021/08/04 04:22:57;;;;;;;4.399999;3.8;;;;;;;13.84;100;95087.88;;;;
2021/08/04 04:23:57;;;;;;;4.399999;3.8;;;;;;;13.84;100;95087.88;;;;
2021/08/04 04:24:58;;;;;;;4.399999;3.8;;;;;;;13.84;100;95087.88;;;;
2021/08/04 04:26:02;;;;;;;4.399999;3.8;;;;;;;13.84;100;95087.88;;;;
2021/08/04 04:27:03;;;;;;;4.399999;3.8;;;;;;;13.84;100;95087.88;;;;
2021/08/04 04:28:05;;;;;;;4.399999;3.8;;;;;;;13.84;100;95087.88;;;;
2021/08/04 04:29:05;;;;;;;4.099999;3.7;;;;;;;13.86;100;95093.87;;;;
2021/08/04 04:30:06;;;;;;;4.099999;3.7;;;;;;;13.86;100;95093.87;;;;
2021/08/04 04:31:08;;;;;;;4.099999;3.7;;;;;;;13.86;100;95093.87;;;;
2021/08/04 04:32:09;;;;;;;4.099999;3.7;;;;;;;13.86;100;95093.87;;;;
2021/08/04 04:33:10;;;;;;;4.099999;3.7;;;;;;;13.86;100;95093.87;;;;
2021/08/04 04:34:10;;;;;;;4.099999;3.7;;;;;;;13.86;100;95093.87;;;;
2021/08/04 04:35:12;;;;;;;4.099999;3.7;;;;;;;13.86;100;95093.87;;;;
2021/08/04 04:36:13;;;;;;;4.099999;3.7;;;;;;;13.86;100;95093.87;;;;
2021/08/04 04:37:13;;;;;;;4.099999;3.7;;;;;;;13.86;100;95093.87;;;;
2021/08/04 04:38:14;;;;;;;4.099999;3.7;;;;;;;13.86;100;95093.87;;;;
2021/08/04 04:39:15;;;;;;;5.2;3.65;;;;;;;13.95;100;95091.07;;;;
2021/08/04 04:40:16;;;;;;;5.2;3.65;;;;;;;13.95;100;95091.07;;;;
2021/08/04 04:41:16;;;;;;;5.2;3.65;;;;;;;13.95;100;95091.07;;;;
2021/08/04 04:42:17;;;;;;;5.2;3.65;;;;;;;13.95;100;95091.07;;;;
2021/08/04 04:43:17;;;;;;;5.2;3.65;;;;;;;13.95;100;95091.07;;;;
2021/08/04 04:44:18;;;;;;;5.2;3.65;;;;;;;13.95;100;95091.07;;;;
2021/08/04 04:45:18;;;;;;;5.2;3.65;;;;;;;13.95;100;95091.07;;;;
2021/08/04 04:46:19;;;;;;;5.2;3.65;;;;;;;13.95;100;95091.07;;;;
2021/08/04 04:47:20;;;;;;;5.2;3.65;;;;;;;13.95;100;95091.07;;;;
2021/08/04 04:48:20;;;;;;;5.2;3.65;;;;;;;13.95;100;95091.07;;;;
2021/08/04 04:49:21;;;;;;;5.2;3.65;;;;;;;13.95;100;95091.07;;;;
2021/08/04 04:50:21;;;;;;;4.050001;3.65;;;;;;;14;100;95099.13;;;;
2021/08/04 04:51:22;;;;;;;4.050001;3.65;;;;;;;14;100;95099.13;;;;
2021/08/04 04:52:22;;;;;;;4.050001;3.65;;;;;;;14;100;95099.13;;;;
2021/08/04 04:53:23;;;;;;;4.050001;3.65;;;;;;;14;100;95099.13;;;;
2021/08/04 04:54:23;;;;;;;4.050001;3.65;;;;;;;14;100;95099.13;;;;
2021/08/04 04:55:24;;;;;;;4.050001;3.65;;;;;;;14;100;95099.13;;;;
2021/08/04 04:56:24;;;;;;;4.050001;3.65;;;;;;;14;100;95099.13;;;;
2021/08/04 04:57:25;;;;;;;4.050001;3.65;;;;;;;14;100;95099.13;;;;
2021/08/04 04:58:25;;;;;;;4.050001;3.65;;;;;;;14;100;95099.13;;;;
2021/08/04 04:59:26;;;;;;;4.050001;3.65;;;;;;;14;100;95099.13;;;;
2021/08/04 05:00:26;;;;;;;5.8;3.75;;;;;;;14.12;100;95109.8;;;;
2021/08/04 05:01:27;;;;;;;5.8;3.75;;;;;;;14.12;100;95109.8;;;;
2021/08/04 05:02:27;;;;;;;5.8;3.75;;;;;;;14.12;100;95109.8;;;;
2021/08/04 05:03:28;;;;;;;5.8;3.75;;;;;;;14.12;100;95109.8;;;;
2021/08/04 05:04:29;;;;;;;5.8;3.75;;;;;;;14.12;100;95109.8;;;;
2021/08/04 05:05:29;;;;;;;5.8;3.75;;;;;;;14.12;100;95109.8;;;;
2021/08/04 05:06:30;;;;;;;5.8;3.75;;;;;;;14.12;100;95109.8;;;;
2021/08/04 05:07:30;;;;;;;5.8;3.75;;;;;;;14.12;100;95109.8;;;;
2021/08/04 05:08:31;;;;;;;5.8;3.75;;;;;;;14.12;100;95109.8;;;;
2021/08/04 05:09:31;;;;;;;5.8;3.75;;;;;;;14.12;100;95109.8;;;;
2021/08/04 05:10:32;;;;;;;5.8;3.75;;;;;;;14.12;100;95109.8;;;;
2021/08/04 05:11:33;;;;;;;4.199999;3.65;;;;;;;14.26;100;95105.98;;;;
2021/08/04 05:12:33;;;;;;;4.199999;3.65;;;;;;;14.26;100;95105.98;;;;
2021/08/04 05:13:34;;;;;;;4.199999;3.65;;;;;;;14.26;100;95105.98;;;;
2021/08/04 05:14:40;;;;;;;4.199999;3.65;;;;;;;14.26;100;95105.98;;;;
2021/08/04 05:15:40;;;;;;;4.199999;3.65;;;;;;;14.26;100;95105.98;;;;
2021/08/04 05:16:41;;;;;;;4.199999;3.65;;;;;;;14.26;100;95105.98;;;;
2021/08/04 05:17:41;;;;;;;4.199999;3.65;;;;;;;14.26;100;95105.98;;;;
2021/08/04 05:18:42;;;;;;;4.199999;3.65;;;;;;;14.26;100;95105.98;;;;
2021/08/04 05:19:42;;;;;;;4.199999;3.65;;;;;;;14.26;100;95105.98;;;;
2021/08/04 05:20:43;;;;;;;4.199999;3.65;;;;;;;14.26;100;95105.98;;;;
2021/08/04 05:21:44;;;;;;;3.5;3.2;;;;;;;14.61;100;95112.53;;;;
2021/08/04 05:22:44;;;;;;;3.5;3.2;;;;;;;14.61;100;95112.53;;;;
2021/08/04 05:23:45;;;;;;;3.5;3.2;;;;;;;14.61;100;95112.53;;;;
2021/08/04 05:24:45;;;;;;;3.5;3.2;;;;;;;14.61;100;95112.53;;;;
2021/08/04 05:25:46;;;;;;;3.5;3.2;;;;;;;14.61;100;95112.53;;;;
2021/08/04 05:26:46;;;;;;;3.5;3.2;;;;;;;14.61;100;95112.53;;;;
2021/08/04 05:27:47;;;;;;;3.5;3.2;;;;;;;14.61;100;95112.53;;;;
2021/08/04 05:28:48;;;;;;;3.5;3.2;;;;;;;14.61;100;95112.53;;;;
2021/08/04 05:29:48;;;;;;;3.5;3.2;;;;;;;14.61;100;95112.53;;;;
2021/08/04 05:30:49;;;;;;;3.5;3.2;;;;;;;14.61;100;95112.53;;;;
2021/08/04 05:31:49;;;;;;;3.5;3.2;;;;;;;14.61;100;95112.53;;;;
2021/08/04 05:32:51;;;;;;;3.8;3.05;;;;;;;14.78;100;95118.19;;;;
2021/08/04 05:33:51;;;;;;;3.8;3.05;;;;;;;14.78;100;95118.19;;;;
2021/08/04 05:34:52;;;;;;;3.8;3.05;;;;;;;14.78;100;95118.19;;;;
2021/08/04 05:35:52;;;;;;;3.8;3.05;;;;;;;14.78;100;95118.19;;;;
2021/08/04 05:36:53;;;;;;;3.8;3.05;;;;;;;14.78;100;95118.19;;;;
2021/08/04 05:37:53;;;;;;;3.8;3.05;;;;;;;14.78;100;95118.19;;;;
2021/08/04 05:38:54;;;;;;;3.8;3.05;;;;;;;14.78;100;95118.19;;;;
2021/08/04 05:39:55;;;;;;;3.8;3.05;;;;;;;14.78;100;95118.19;;;;
2021/08/04 05:40:55;;;;;;;3.8;3.05;;;;;;;14.78;100;95118.19;;;;
2021/08/04 05:41:56;;;;;;;3.8;3.05;;;;;;;14.78;100;95118.19;;;;
2021/08/04 05:42:56;;;;;;;3.2;2.9;;;;;;;14.92;100;95112.11;;;;
2021/08/04 05:43:57;;;;;;;3.2;2.9;;;;;;;14.92;100;95112.11;;;;
2021/08/04 05:44:57;;;;;;;3.2;2.9;;;;;;;14.92;100;95112.11;;;;
2021/08/04 05:45:58;;;;;;;3.2;2.9;;;;;;;14.92;100;95112.11;;;;
2021/08/04 05:46:58;;;;;;;3.2;2.9;;;;;;;14.92;100;95112.11;;;;
2021/08/04 05:47:59;;;;;;;3.2;2.9;;;;;;;14.92;100;95112.11;;;;
2021/08/04 05:49:00;;;;;;;3.2;2.9;;;;;;;14.92;100;95112.11;;;;
2021/08/04 05:50:00;;;;;;;3.2;2.9;;;;;;;14.92;100;95112.11;;;;
2021/08/04 05:51:01;;;;;;;3.2;2.9;;;;;;;14.92;100;95112.11;;;;
2021/08/04 05:52:01;;;;;;;3.2;2.9;;;;;;;14.92;100;95112.11;;;;
2021/08/04 05:53:02;;;;;;;3.2;2.9;;;;;;;14.92;100;95112.11;;;;
2021/08/04 05:54:03;;;;;;;3.6;2.9;;;;;;;15.08;100;95103.33;;;;
2021/08/04 05:55:04;;;;;;;3.6;2.9;;;;;;;15.08;100;95103.33;;;;
2021/08/04 05:56:06;;;;;;;3.6;2.9;;;;;;;15.08;100;95103.33;;;;
2021/08/04 05:57:07;;;;;;;3.6;2.9;;;;;;;15.08;100;95103.33;;;;
2021/08/04 05:58:08;;;;;;;3.6;2.9;;;;;;;15.08;100;95103.33;;;;
2021/08/04 05:59:08;;;;;;;3.6;2.9;;;;;;;15.08;100;95103.33;;;;
2021/08/04 06:00:09;;;;;;;3.6;2.9;;;;;;;15.08;100;95103.33;;;;
2021/08/04 06:01:11;;;;;;;3.6;2.9;;;;;;;15.08;100;95103.33;;;;
2021/08/04 06:02:11;;;;;;;3.6;2.9;;;;;;;15.08;100;95103.33;;;;
2021/08/04 06:03:12;;;;;;;3.6;2.9;;;;;;;15.08;100;95103.33;;;;
2021/08/04 06:04:12;;;;;;;4.150001;3.25;;;;;;;15.22;100;95110.03;;;;
2021/08/04 06:05:13;;;;;;;4.150001;3.25;;;;;;;15.22;100;95110.03;;;;
2021/08/04 06:06:13;;;;;;;4.150001;3.25;;;;;;;15.22;100;95110.03;;;;
2021/08/04 06:07:14;;;;;;;4.150001;3.25;;;;;;;15.22;100;95110.03;;;;
2021/08/04 06:08:15;;;;;;;4.150001;3.25;;;;;;;15.22;100;95110.03;;;;
2021/08/04 06:09:16;;;;;;;4.150001;3.25;;;;;;;15.22;100;95110.03;;;;
2021/08/04 06:10:16;;;;;;;4.150001;3.25;;;;;;;15.22;100;95110.03;;;;
2021/08/04 06:11:17;;;;;;;4.150001;3.25;;;;;;;15.22;100;95110.03;;;;
2021/08/04 06:12:17;;;;;;;4.150001;3.25;;;;;;;15.22;100;95110.03;;;;
2021/08/04 06:13:18;;;;;;;4.150001;3.25;;;;;;;15.22;100;95110.03;;;;
2021/08/04 06:14:18;;;;;;;4.150001;3.25;;;;;;;15.22;100;95110.03;;;;
2021/08/04 06:15:19;;;;;;;3.6;2.65;;;;;;;15.51;100;95111.06;;;;